sensor_id;sensor_type;location;lat;lon;timestamp;P1;durP1;ratioP1;P2;durP2;ratioP2
38425;SDS011;24210;51.460;6.148;2024-01-15T00:01:45;24.60;;;11.17;;
38425;SDS011;24210;51.460;6.148;2024-01-15T00:04:10;21.63;;;12.30;;
38425;SDS011;24210;51.460;6.148;2024-01-15T00:06:35;21.67;;;10.77;;
38425;SDS011;24210;51.460;6.148;2024-01-15T00:09:00;24.80;;;12.90;;
38425;SDS011;24210;51.460;6.148;2024-01-15T00:11:26;21.53;;;8.43;;
38425;SDS011;24210;51.460;6.148;2024-01-15T00:13:51;22.57;;;11.00;;
38425;SDS011;24210;51.460;6.148;2024-01-15T00:16:17;23.07;;;12.70;;
38425;SDS011;24210;51.460;6.148;2024-01-15T00:18:42;19.57;;;11.20;;
38425;SDS011;24210;51.460;6.148;2024-01-15T00:21:07;23.83;;;12.97;;
38425;SDS011;24210;51.460;6.148;2024-01-15T00:23:32;23.50;;;14.07;;
38425;SDS011;24210;51.460;6.148;2024-01-15T00:25:57;20.03;;;11.73;;
38425;SDS011;24210;51.460;6.148;2024-01-15T00:28:23;19.53;;;10.93;;
38425;SDS011;24210;51.460;6.148;2024-01-15T00:30:48;22.20;;;14.57;;
38425;SDS011;24210;51.460;6.148;2024-01-15T00:33:13;13.93;;;6.80;;
38425;SDS011;24210;51.460;6.148;2024-01-15T00:35:39;15.38;;;7.82;;
38425;SDS011;24210;51.460;6.148;2024-01-15T00:38:04;24.53;;;12.47;;
38425;SDS011;24210;51.460;6.148;2024-01-15T00:40:30;18.73;;;9.53;;
38425;SDS011;24210;51.460;6.148;2024-01-15T00:42:55;20.30;;;11.73;;
38425;SDS011;24210;51.460;6.148;2024-01-15T00:45:20;24.87;;;13.13;;
38425;SDS011;24210;51.460;6.148;2024-01-15T00:47:45;21.90;;;9.23;;
38425;SDS011;24210;51.460;6.148;2024-01-15T00:50:11;24.70;;;13.60;;
38425;SDS011;24210;51.460;6.148;2024-01-15T00:52:36;18.50;;;10.27;;
38425;SDS011;24210;51.460;6.148;2024-01-15T00:55:01;20.40;;;9.93;;
38425;SDS011;24210;51.460;6.148;2024-01-15T00:57:26;23.63;;;13.60;;
38425;SDS011;24210;51.460;6.148;2024-01-15T00:59:51;17.87;;;9.43;;
38425;SDS011;24210;51.460;6.148;2024-01-15T01:02:17;24.33;;;13.07;;
38425;SDS011;24210;51.460;6.148;2024-01-15T01:04:42;27.53;;;13.30;;
38425;SDS011;24210;51.460;6.148;2024-01-15T01:07:07;21.10;;;10.90;;
38425;SDS011;24210;51.460;6.148;2024-01-15T01:09:32;18.73;;;9.77;;
38425;SDS011;24210;51.460;6.148;2024-01-15T01:11:58;21.50;;;11.07;;
38425;SDS011;24210;51.460;6.148;2024-01-15T01:14:23;19.53;;;11.17;;
38425;SDS011;24210;51.460;6.148;2024-01-15T01:16:48;23.90;;;11.93;;
38425;SDS011;24210;51.460;6.148;2024-01-15T01:19:13;18.03;;;9.53;;
38425;SDS011;24210;51.460;6.148;2024-01-15T01:21:39;19.03;;;11.00;;
38425;SDS011;24210;51.460;6.148;2024-01-15T01:24:04;18.23;;;10.50;;
38425;SDS011;24210;51.460;6.148;2024-01-15T01:26:29;17.53;;;8.83;;
38425;SDS011;24210;51.460;6.148;2024-01-15T01:28:55;21.70;;;10.87;;
38425;SDS011;24210;51.460;6.148;2024-01-15T01:31:20;25.37;;;12.03;;
38425;SDS011;24210;51.460;6.148;2024-01-15T01:33:45;16.43;;;10.40;;
38425;SDS011;24210;51.460;6.148;2024-01-15T01:36:10;17.67;;;10.73;;
38425;SDS011;24210;51.460;6.148;2024-01-15T01:38:36;20.27;;;11.80;;
38425;SDS011;24210;51.460;6.148;2024-01-15T01:41:01;15.17;;;8.97;;
38425;SDS011;24210;51.460;6.148;2024-01-15T01:43:27;17.63;;;8.50;;
38425;SDS011;24210;51.460;6.148;2024-01-15T01:45:52;15.80;;;7.60;;
38425;SDS011;24210;51.460;6.148;2024-01-15T01:48:17;14.93;;;9.40;;
38425;SDS011;24210;51.460;6.148;2024-01-15T01:50:42;15.13;;;7.80;;
38425;SDS011;24210;51.460;6.148;2024-01-15T01:53:08;13.23;;;6.23;;
38425;SDS011;24210;51.460;6.148;2024-01-15T01:55:34;14.18;;;7.57;;
38425;SDS011;24210;51.460;6.148;2024-01-15T01:58:01;17.90;;;7.10;;
38425;SDS011;24210;51.460;6.148;2024-01-15T02:00:26;11.43;;;6.67;;
38425;SDS011;24210;51.460;6.148;2024-01-15T02:02:52;11.43;;;5.67;;
38425;SDS011;24210;51.460;6.148;2024-01-15T02:05:18;11.50;;;6.57;;
38425;SDS011;24210;51.460;6.148;2024-01-15T02:07:43;10.93;;;6.43;;
38425;SDS011;24210;51.460;6.148;2024-01-15T02:10:09;11.53;;;5.40;;
38425;SDS011;24210;51.460;6.148;2024-01-15T02:12:34;10.00;;;5.23;;
38425;SDS011;24210;51.460;6.148;2024-01-15T02:15:00;8.53;;;5.93;;
38425;SDS011;24210;51.460;6.148;2024-01-15T02:17:25;9.63;;;5.33;;
38425;SDS011;24210;51.460;6.148;2024-01-15T02:19:50;8.20;;;5.70;;
38425;SDS011;24210;51.460;6.148;2024-01-15T02:22:15;9.40;;;4.80;;
38425;SDS011;24210;51.460;6.148;2024-01-15T02:24:41;9.80;;;4.10;;
38425;SDS011;24210;51.460;6.148;2024-01-15T02:27:06;5.67;;;3.90;;
38425;SDS011;24210;51.460;6.148;2024-01-15T02:29:32;8.87;;;3.97;;
38425;SDS011;24210;51.460;6.148;2024-01-15T02:31:57;7.67;;;3.90;;
38425;SDS011;24210;51.460;6.148;2024-01-15T02:34:22;7.60;;;5.23;;
38425;SDS011;24210;51.460;6.148;2024-01-15T02:36:48;8.00;;;4.67;;
38425;SDS011;24210;51.460;6.148;2024-01-15T02:39:13;9.00;;;3.93;;
38425;SDS011;24210;51.460;6.148;2024-01-15T02:41:38;9.80;;;4.97;;
38425;SDS011;24210;51.460;6.148;2024-01-15T02:44:03;8.00;;;4.43;;
38425;SDS011;24210;51.460;6.148;2024-01-15T02:46:29;5.83;;;3.50;;
38425;SDS011;24210;51.460;6.148;2024-01-15T02:48:54;10.17;;;5.47;;
38425;SDS011;24210;51.460;6.148;2024-01-15T02:51:19;9.57;;;5.10;;
38425;SDS011;24210;51.460;6.148;2024-01-15T02:53:44;7.50;;;3.90;;
38425;SDS011;24210;51.460;6.148;2024-01-15T02:56:09;9.70;;;4.93;;
38425;SDS011;24210;51.460;6.148;2024-01-15T02:58:35;5.97;;;3.60;;
38425;SDS011;24210;51.460;6.148;2024-01-15T03:01:00;10.40;;;7.00;;
38425;SDS011;24210;51.460;6.148;2024-01-15T03:03:25;8.17;;;5.93;;
38425;SDS011;24210;51.460;6.148;2024-01-15T03:05:50;8.97;;;5.10;;
38425;SDS011;24210;51.460;6.148;2024-01-15T03:08:15;7.20;;;4.93;;
38425;SDS011;24210;51.460;6.148;2024-01-15T03:10:42;8.77;;;4.65;;
38425;SDS011;24210;51.460;6.148;2024-01-15T03:13:07;8.77;;;4.00;;
38425;SDS011;24210;51.460;6.148;2024-01-15T03:15:32;10.70;;;6.07;;
38425;SDS011;24210;51.460;6.148;2024-01-15T03:17:57;8.90;;;5.70;;
38425;SDS011;24210;51.460;6.148;2024-01-15T03:20:23;7.27;;;4.93;;
38425;SDS011;24210;51.460;6.148;2024-01-15T03:22:48;7.97;;;5.30;;
38425;SDS011;24210;51.460;6.148;2024-01-15T03:25:14;8.97;;;4.83;;
38425;SDS011;24210;51.460;6.148;2024-01-15T03:27:39;8.43;;;3.70;;
38425;SDS011;24210;51.460;6.148;2024-01-15T03:30:04;7.90;;;4.60;;
38425;SDS011;24210;51.460;6.148;2024-01-15T03:32:30;7.33;;;4.27;;
38425;SDS011;24210;51.460;6.148;2024-01-15T03:34:55;6.70;;;3.97;;
38425;SDS011;24210;51.460;6.148;2024-01-15T03:37:20;8.17;;;4.67;;
38425;SDS011;24210;51.460;6.148;2024-01-15T03:39:45;7.10;;;4.60;;
38425;SDS011;24210;51.460;6.148;2024-01-15T03:42:11;6.80;;;3.90;;
38425;SDS011;24210;51.460;6.148;2024-01-15T03:44:36;7.30;;;3.87;;
38425;SDS011;24210;51.460;6.148;2024-01-15T03:47:01;6.47;;;3.67;;
38425;SDS011;24210;51.460;6.148;2024-01-15T03:49:26;6.77;;;3.93;;
38425;SDS011;24210;51.460;6.148;2024-01-15T03:51:51;7.80;;;3.70;;
38425;SDS011;24210;51.460;6.148;2024-01-15T03:54:17;6.17;;;3.63;;
38425;SDS011;24210;51.460;6.148;2024-01-15T03:56:42;5.57;;;2.53;;
38425;SDS011;24210;51.460;6.148;2024-01-15T03:59:07;6.03;;;3.33;;
38425;SDS011;24210;51.460;6.148;2024-01-15T04:01:32;6.30;;;3.17;;
38425;SDS011;24210;51.460;6.148;2024-01-15T04:03:58;8.33;;;3.00;;
38425;SDS011;24210;51.460;6.148;2024-01-15T04:06:23;4.70;;;2.43;;
38425;SDS011;24210;51.460;6.148;2024-01-15T04:08:48;6.13;;;3.20;;
38425;SDS011;24210;51.460;6.148;2024-01-15T04:11:13;6.73;;;3.00;;
38425;SDS011;24210;51.460;6.148;2024-01-15T04:13:38;5.63;;;3.07;;
38425;SDS011;24210;51.460;6.148;2024-01-15T04:16:04;7.00;;;3.80;;
38425;SDS011;24210;51.460;6.148;2024-01-15T04:18:29;3.47;;;2.17;;
38425;SDS011;24210;51.460;6.148;2024-01-15T04:20:54;6.43;;;3.67;;
38425;SDS011;24210;51.460;6.148;2024-01-15T04:23:20;6.20;;;3.20;;
38425;SDS011;24210;51.460;6.148;2024-01-15T04:25:45;6.07;;;4.10;;
38425;SDS011;24210;51.460;6.148;2024-01-15T04:28:11;1.43;;;1.30;;
38425;SDS011;24210;51.460;6.148;2024-01-15T04:30:36;4.87;;;3.00;;
38425;SDS011;24210;51.460;6.148;2024-01-15T04:33:01;7.63;;;3.23;;
38425;SDS011;24210;51.460;6.148;2024-01-15T04:35:26;4.63;;;3.03;;
38425;SDS011;24210;51.460;6.148;2024-01-15T04:37:52;4.73;;;2.70;;
38425;SDS011;24210;51.460;6.148;2024-01-15T04:40:17;9.77;;;3.13;;
38425;SDS011;24210;51.460;6.148;2024-01-15T04:42:42;4.53;;;3.13;;
38425;SDS011;24210;51.460;6.148;2024-01-15T04:45:08;8.27;;;3.40;;
38425;SDS011;24210;51.460;6.148;2024-01-15T04:47:33;7.13;;;3.43;;
38425;SDS011;24210;51.460;6.148;2024-01-15T04:49:58;4.90;;;2.77;;
38425;SDS011;24210;51.460;6.148;2024-01-15T04:52:24;7.70;;;3.07;;
38425;SDS011;24210;51.460;6.148;2024-01-15T04:54:49;8.20;;;2.80;;
38425;SDS011;24210;51.460;6.148;2024-01-15T04:57:15;9.50;;;3.67;;
38425;SDS011;24210;51.460;6.148;2024-01-15T04:59:40;2.93;;;1.40;;
38425;SDS011;24210;51.460;6.148;2024-01-15T05:02:05;4.90;;;2.03;;
38425;SDS011;24210;51.460;6.148;2024-01-15T05:04:30;9.00;;;3.57;;
38425;SDS011;24210;51.460;6.148;2024-01-15T05:06:56;4.60;;;2.57;;
38425;SDS011;24210;51.460;6.148;2024-01-15T05:09:21;6.53;;;1.70;;
38425;SDS011;24210;51.460;6.148;2024-01-15T05:11:46;4.30;;;2.33;;
38425;SDS011;24210;51.460;6.148;2024-01-15T05:14:11;4.53;;;1.97;;
38425;SDS011;24210;51.460;6.148;2024-01-15T05:16:46;5.83;;;2.57;;
38425;SDS011;24210;51.460;6.148;2024-01-15T05:19:11;13.10;;;2.45;;
38425;SDS011;24210;51.460;6.148;2024-01-15T05:21:36;2.60;;;1.93;;
38425;SDS011;24210;51.460;6.148;2024-01-15T05:24:02;2.80;;;1.43;;
38425;SDS011;24210;51.460;6.148;2024-01-15T05:26:27;5.87;;;1.60;;
38425;SDS011;24210;51.460;6.148;2024-01-15T05:28:52;6.60;;;1.77;;
38425;SDS011;24210;51.460;6.148;2024-01-15T05:31:17;6.63;;;2.50;;
38425;SDS011;24210;51.460;6.148;2024-01-15T05:33:42;2.80;;;1.20;;
38425;SDS011;24210;51.460;6.148;2024-01-15T05:36:08;5.17;;;1.73;;
38425;SDS011;24210;51.460;6.148;2024-01-15T05:38:33;6.47;;;2.37;;
38425;SDS011;24210;51.460;6.148;2024-01-15T05:40:58;2.83;;;1.30;;
38425;SDS011;24210;51.460;6.148;2024-01-15T05:43:23;1.53;;;1.10;;
38425;SDS011;24210;51.460;6.148;2024-01-15T05:45:48;2.53;;;1.43;;
38425;SDS011;24210;51.460;6.148;2024-01-15T05:48:14;1.00;;;0.70;;
38425;SDS011;24210;51.460;6.148;2024-01-15T05:50:39;2.23;;;0.90;;
38425;SDS011;24210;51.460;6.148;2024-01-15T05:53:04;2.47;;;1.10;;
38425;SDS011;24210;51.460;6.148;2024-01-15T05:55:30;0.90;;;0.37;;
38425;SDS011;24210;51.460;6.148;2024-01-15T05:57:55;2.23;;;1.20;;
38425;SDS011;24210;51.460;6.148;2024-01-15T06:00:20;3.60;;;0.77;;
38425;SDS011;24210;51.460;6.148;2024-01-15T06:02:46;5.10;;;0.40;;
38425;SDS011;24210;51.460;6.148;2024-01-15T06:05:11;1.63;;;0.40;;
38425;SDS011;24210;51.460;6.148;2024-01-15T06:07:36;4.60;;;0.50;;
38425;SDS011;24210;51.460;6.148;2024-01-15T06:10:02;0.63;;;0.53;;
38425;SDS011;24210;51.460;6.148;2024-01-15T06:12:27;2.03;;;0.43;;
38425;SDS011;24210;51.460;6.148;2024-01-15T06:14:53;1.77;;;0.43;;
38425;SDS011;24210;51.460;6.148;2024-01-15T06:17:18;2.83;;;1.20;;
38425;SDS011;24210;51.460;6.148;2024-01-15T06:19:43;4.77;;;0.70;;
38425;SDS011;24210;51.460;6.148;2024-01-15T06:22:09;3.93;;;0.30;;
38425;SDS011;24210;51.460;6.148;2024-01-15T06:24:34;2.33;;;0.40;;
38425;SDS011;24210;51.460;6.148;2024-01-15T06:26:59;1.57;;;0.20;;
38425;SDS011;24210;51.460;6.148;2024-01-15T06:29:25;2.83;;;0.40;;
38425;SDS011;24210;51.460;6.148;2024-01-15T06:31:50;2.92;;;0.70;;
38425;SDS011;24210;51.460;6.148;2024-01-15T06:34:15;1.17;;;0.50;;
38425;SDS011;24210;51.460;6.148;2024-01-15T06:36:41;6.20;;;0.70;;
38425;SDS011;24210;51.460;6.148;2024-01-15T06:39:06;1.87;;;0.50;;
38425;SDS011;24210;51.460;6.148;2024-01-15T06:41:31;2.13;;;0.47;;
38425;SDS011;24210;51.460;6.148;2024-01-15T06:43:56;3.30;;;0.70;;
38425;SDS011;24210;51.460;6.148;2024-01-15T06:46:22;3.30;;;1.07;;
38425;SDS011;24210;51.460;6.148;2024-01-15T06:48:47;3.20;;;1.40;;
38425;SDS011;24210;51.460;6.148;2024-01-15T06:51:13;1.87;;;0.50;;
38425;SDS011;24210;51.460;6.148;2024-01-15T06:53:38;3.37;;;1.70;;
38425;SDS011;24210;51.460;6.148;2024-01-15T06:56:03;2.77;;;2.20;;
38425;SDS011;24210;51.460;6.148;2024-01-15T06:58:30;3.97;;;2.20;;
38425;SDS011;24210;51.460;6.148;2024-01-15T07:00:55;9.40;;;2.97;;
38425;SDS011;24210;51.460;6.148;2024-01-15T07:03:21;5.77;;;4.00;;
38425;SDS011;24210;51.460;6.148;2024-01-15T07:05:46;6.13;;;3.23;;
38425;SDS011;24210;51.460;6.148;2024-01-15T07:08:11;6.40;;;4.10;;
38425;SDS011;24210;51.460;6.148;2024-01-15T07:10:36;6.23;;;3.03;;
38425;SDS011;24210;51.460;6.148;2024-01-15T07:13:01;6.17;;;3.23;;
38425;SDS011;24210;51.460;6.148;2024-01-15T07:15:27;4.13;;;3.43;;
38425;SDS011;24210;51.460;6.148;2024-01-15T07:17:52;4.93;;;2.23;;
38425;SDS011;24210;51.460;6.148;2024-01-15T07:20:17;6.20;;;3.47;;
38425;SDS011;24210;51.460;6.148;2024-01-15T07:25:10;6.15;;;3.08;;
38425;SDS011;24210;51.460;6.148;2024-01-15T07:27:35;6.63;;;3.60;;
38425;SDS011;24210;51.460;6.148;2024-01-15T07:30:00;7.47;;;3.70;;
38425;SDS011;24210;51.460;6.148;2024-01-15T07:32:25;6.00;;;3.30;;
38425;SDS011;24210;51.460;6.148;2024-01-15T07:34:51;6.20;;;2.93;;
38425;SDS011;24210;51.460;6.148;2024-01-15T07:37:16;5.83;;;3.93;;
38425;SDS011;24210;51.460;6.148;2024-01-15T07:39:41;7.23;;;3.97;;
38425;SDS011;24210;51.460;6.148;2024-01-15T07:42:06;7.00;;;2.80;;
38425;SDS011;24210;51.460;6.148;2024-01-15T07:44:32;6.83;;;4.20;;
38425;SDS011;24210;51.460;6.148;2024-01-15T07:46:57;5.70;;;4.03;;
38425;SDS011;24210;51.460;6.148;2024-01-15T07:49:22;4.33;;;3.43;;
38425;SDS011;24210;51.460;6.148;2024-01-15T07:51:48;3.07;;;2.77;;
38425;SDS011;24210;51.460;6.148;2024-01-15T07:54:14;4.83;;;2.20;;
38425;SDS011;24210;51.460;6.148;2024-01-15T07:56:59;3.10;;;1.70;;
38425;SDS011;24210;51.460;6.148;2024-01-15T07:59:24;4.43;;;3.92;;
38425;SDS011;24210;51.460;6.148;2024-01-15T08:01:50;3.63;;;3.27;;
38425;SDS011;24210;51.460;6.148;2024-01-15T08:04:15;4.80;;;1.40;;
38425;SDS011;24210;51.460;6.148;2024-01-15T08:06:40;4.73;;;2.90;;
38425;SDS011;24210;51.460;6.148;2024-01-15T08:09:06;4.90;;;2.57;;
38425;SDS011;24210;51.460;6.148;2024-01-15T08:11:31;2.17;;;1.87;;
38425;SDS011;24210;51.460;6.148;2024-01-15T08:13:56;11.90;;;2.23;;
38425;SDS011;24210;51.460;6.148;2024-01-15T08:16:21;5.20;;;3.27;;
38425;SDS011;24210;51.460;6.148;2024-01-15T08:18:47;7.23;;;4.00;;
38425;SDS011;24210;51.460;6.148;2024-01-15T08:21:12;2.07;;;1.63;;
38425;SDS011;24210;51.460;6.148;2024-01-15T08:23:38;2.80;;;1.73;;
38425;SDS011;24210;51.460;6.148;2024-01-15T08:26:03;11.43;;;2.73;;
38425;SDS011;24210;51.460;6.148;2024-01-15T08:28:28;5.90;;;2.43;;
38425;SDS011;24210;51.460;6.148;2024-01-15T08:30:54;14.43;;;2.80;;
38425;SDS011;24210;51.460;6.148;2024-01-15T08:33:19;4.57;;;1.47;;
38425;SDS011;24210;51.460;6.148;2024-01-15T08:35:44;2.90;;;2.33;;
38425;SDS011;24210;51.460;6.148;2024-01-15T08:38:10;1.90;;;1.27;;
38425;SDS011;24210;51.460;6.148;2024-01-15T08:40:35;5.97;;;1.33;;
38425;SDS011;24210;51.460;6.148;2024-01-15T08:43:00;2.43;;;2.03;;
38425;SDS011;24210;51.460;6.148;2024-01-15T08:45:27;2.55;;;0.95;;
38425;SDS011;24210;51.460;6.148;2024-01-15T08:47:52;2.20;;;1.40;;
38425;SDS011;24210;51.460;6.148;2024-01-15T08:50:17;3.20;;;1.87;;
38425;SDS011;24210;51.460;6.148;2024-01-15T08:52:42;1.80;;;1.60;;
38425;SDS011;24210;51.460;6.148;2024-01-15T08:55:07;2.90;;;2.00;;
38425;SDS011;24210;51.460;6.148;2024-01-15T08:57:33;2.37;;;1.47;;
38425;SDS011;24210;51.460;6.148;2024-01-15T08:59:58;2.10;;;1.40;;
38425;SDS011;24210;51.460;6.148;2024-01-15T09:02:24;2.47;;;1.67;;
38425;SDS011;24210;51.460;6.148;2024-01-15T09:04:49;3.07;;;1.80;;
38425;SDS011;24210;51.460;6.148;2024-01-15T09:07:15;2.60;;;2.23;;
38425;SDS011;24210;51.460;6.148;2024-01-15T09:09:40;5.63;;;2.33;;
38425;SDS011;24210;51.460;6.148;2024-01-15T09:14:32;2.83;;;0.40;;
38425;SDS011;24210;51.460;6.148;2024-01-15T09:16:59;2.05;;;1.67;;
38425;SDS011;24210;51.460;6.148;2024-01-15T09:19:24;1.40;;;1.30;;
38425;SDS011;24210;51.460;6.148;2024-01-15T09:21:49;2.23;;;1.90;;
38425;SDS011;24210;51.460;6.148;2024-01-15T09:24:15;2.53;;;2.33;;
38425;SDS011;24210;51.460;6.148;2024-01-15T09:26:40;2.27;;;1.63;;
38425;SDS011;24210;51.460;6.148;2024-01-15T09:29:05;1.87;;;1.40;;
38425;SDS011;24210;51.460;6.148;2024-01-15T09:31:31;2.23;;;1.80;;
38425;SDS011;24210;51.460;6.148;2024-01-15T09:33:56;3.07;;;1.47;;
38425;SDS011;24210;51.460;6.148;2024-01-15T09:36:22;3.38;;;1.50;;
38425;SDS011;24210;51.460;6.148;2024-01-15T09:38:48;4.80;;;1.77;;
38425;SDS011;24210;51.460;6.148;2024-01-15T09:41:13;1.10;;;1.00;;
38425;SDS011;24210;51.460;6.148;2024-01-15T09:43:38;1.73;;;1.40;;
38425;SDS011;24210;51.460;6.148;2024-01-15T09:46:03;1.57;;;1.47;;
38425;SDS011;24210;51.460;6.148;2024-01-15T09:48:29;2.33;;;1.50;;
38425;SDS011;24210;51.460;6.148;2024-01-15T09:50:54;3.90;;;2.30;;
38425;SDS011;24210;51.460;6.148;2024-01-15T09:53:20;1.73;;;1.48;;
38425;SDS011;24210;51.460;6.148;2024-01-15T09:55:46;1.50;;;1.40;;
38425;SDS011;24210;51.460;6.148;2024-01-15T09:58:11;3.10;;;1.83;;
38425;SDS011;24210;51.460;6.148;2024-01-15T10:00:37;2.30;;;2.17;;
38425;SDS011;24210;51.460;6.148;2024-01-15T10:03:04;1.92;;;1.70;;
38425;SDS011;24210;51.460;6.148;2024-01-15T10:05:29;2.33;;;2.13;;
38425;SDS011;24210;51.460;6.148;2024-01-15T10:07:55;1.60;;;1.33;;
38425;SDS011;24210;51.460;6.148;2024-01-15T10:10:21;1.58;;;1.48;;
38425;SDS011;24210;51.460;6.148;2024-01-15T10:12:47;2.17;;;2.07;;
38425;SDS011;24210;51.460;6.148;2024-01-15T10:15:12;5.23;;;2.33;;
38425;SDS011;24210;51.460;6.148;2024-01-15T10:17:38;3.47;;;2.40;;
38425;SDS011;24210;51.460;6.148;2024-01-15T10:20:07;2.00;;;1.90;;
38425;SDS011;24210;51.460;6.148;2024-01-15T10:22:32;3.58;;;2.00;;
38425;SDS011;24210;51.460;6.148;2024-01-15T10:24:57;2.07;;;1.87;;
38425;SDS011;24210;51.460;6.148;2024-01-15T10:27:23;1.70;;;1.60;;
38425;SDS011;24210;51.460;6.148;2024-01-15T10:29:49;2.27;;;2.00;;
38425;SDS011;24210;51.460;6.148;2024-01-15T10:32:14;4.77;;;2.23;;
38425;SDS011;24210;51.460;6.148;2024-01-15T10:34:39;2.00;;;1.60;;
38425;SDS011;24210;51.460;6.148;2024-01-15T10:37:06;1.60;;;1.43;;
38425;SDS011;24210;51.460;6.148;2024-01-15T10:39:32;6.55;;;2.22;;
38425;SDS011;24210;51.460;6.148;2024-01-15T10:41:57;3.70;;;1.53;;
38425;SDS011;24210;51.460;6.148;2024-01-15T10:44:22;2.33;;;0.90;;
38425;SDS011;24210;51.460;6.148;2024-01-15T10:46:48;4.27;;;1.00;;
38425;SDS011;24210;51.460;6.148;2024-01-15T10:49:13;3.00;;;0.83;;
38425;SDS011;24210;51.460;6.148;2024-01-15T10:51:38;4.27;;;1.13;;
38425;SDS011;24210;51.460;6.148;2024-01-15T10:54:04;2.28;;;0.52;;
38425;SDS011;24210;51.460;6.148;2024-01-15T10:56:30;2.73;;;0.33;;
38425;SDS011;24210;51.460;6.148;2024-01-15T10:58:56;3.42;;;1.00;;
38425;SDS011;24210;51.460;6.148;2024-01-15T11:01:22;1.87;;;0.63;;
38425;SDS011;24210;51.460;6.148;2024-01-15T11:03:47;2.90;;;0.53;;
38425;SDS011;24210;51.460;6.148;2024-01-15T11:06:15;3.00;;;0.57;;
38425;SDS011;24210;51.460;6.148;2024-01-15T11:08:42;4.50;;;0.30;;
38425;SDS011;24210;51.460;6.148;2024-01-15T11:11:07;1.80;;;0.40;;
38425;SDS011;24210;51.460;6.148;2024-01-15T11:16:05;6.07;;;0.43;;
38425;SDS011;24210;51.460;6.148;2024-01-15T11:18:31;3.28;;;0.90;;
38425;SDS011;24210;51.460;6.148;2024-01-15T11:24:00;5.57;;;0.80;;
38425;SDS011;24210;51.460;6.148;2024-01-15T11:26:43;3.83;;;1.00;;
38425;SDS011;24210;51.460;6.148;2024-01-15T11:34:20;2.95;;;0.60;;
38425;SDS011;24210;51.460;6.148;2024-01-15T11:41:52;3.42;;;1.15;;
38425;SDS011;24210;51.460;6.148;2024-01-15T11:44:19;4.55;;;1.38;;
38425;SDS011;24210;51.460;6.148;2024-01-15T11:46:46;6.13;;;2.73;;
38425;SDS011;24210;51.460;6.148;2024-01-15T11:49:15;4.18;;;0.77;;
38425;SDS011;24210;51.460;6.148;2024-01-15T11:51:47;4.80;;;0.88;;
38425;SDS011;24210;51.460;6.148;2024-01-15T11:54:12;2.47;;;0.90;;
38425;SDS011;24210;51.460;6.148;2024-01-15T11:56:39;0.90;;;0.82;;
38425;SDS011;24210;51.460;6.148;2024-01-15T11:59:05;3.87;;;1.73;;
38425;SDS011;24210;51.460;6.148;2024-01-15T12:01:30;3.17;;;1.60;;
38425;SDS011;24210;51.460;6.148;2024-01-15T12:03:57;0.68;;;0.60;;
38425;SDS011;24210;51.460;6.148;2024-01-15T12:06:23;2.90;;;1.10;;
38425;SDS011;24210;51.460;6.148;2024-01-15T12:08:48;3.07;;;2.33;;
38425;SDS011;24210;51.460;6.148;2024-01-15T12:11:13;3.27;;;1.07;;
38425;SDS011;24210;51.460;6.148;2024-01-15T12:13:42;2.08;;;1.27;;
38425;SDS011;24210;51.460;6.148;2024-01-15T12:16:07;3.17;;;1.60;;
38425;SDS011;24210;51.460;6.148;2024-01-15T12:18:32;1.30;;;0.87;;
38425;SDS011;24210;51.460;6.148;2024-01-15T12:20:57;0.17;;;0.17;;
38425;SDS011;24210;51.460;6.148;2024-01-15T12:23:24;4.00;;;0.98;;
38425;SDS011;24210;51.460;6.148;2024-01-15T12:25:49;5.00;;;1.33;;
38425;SDS011;24210;51.460;6.148;2024-01-15T12:28:15;2.10;;;1.07;;
38425;SDS011;24210;51.460;6.148;2024-01-15T12:30:40;3.80;;;0.87;;
38425;SDS011;24210;51.460;6.148;2024-01-15T12:33:06;2.53;;;0.87;;
38425;SDS011;24210;51.460;6.148;2024-01-15T12:35:31;1.30;;;0.70;;
38425;SDS011;24210;51.460;6.148;2024-01-15T12:37:59;1.15;;;0.10;;
38425;SDS011;24210;51.460;6.148;2024-01-15T12:40:25;2.25;;;1.27;;
38425;SDS011;24210;51.460;6.148;2024-01-15T12:42:50;0.90;;;0.30;;
38425;SDS011;24210;51.460;6.148;2024-01-15T12:45:16;2.03;;;0.40;;
38425;SDS011;24210;51.460;6.148;2024-01-15T12:47:42;1.45;;;0.50;;
38425;SDS011;24210;51.460;6.148;2024-01-15T12:50:11;1.33;;;0.30;;
38425;SDS011;24210;51.460;6.148;2024-01-15T12:52:37;2.65;;;0.65;;
38425;SDS011;24210;51.460;6.148;2024-01-15T12:55:06;2.70;;;0.75;;
38425;SDS011;24210;51.460;6.148;2024-01-15T12:57:31;1.55;;;0.70;;
38425;SDS011;24210;51.460;6.148;2024-01-15T12:59:57;0.93;;;0.30;;
38425;SDS011;24210;51.460;6.148;2024-01-15T13:02:22;1.53;;;0.40;;
38425;SDS011;24210;51.460;6.148;2024-01-15T13:04:47;0.87;;;0.40;;
38425;SDS011;24210;51.460;6.148;2024-01-15T13:07:13;0.63;;;0.23;;
38425;SDS011;24210;51.460;6.148;2024-01-15T13:09:38;0.70;;;0.20;;
38425;SDS011;24210;51.460;6.148;2024-01-15T13:12:03;0.77;;;0.40;;
38425;SDS011;24210;51.460;6.148;2024-01-15T13:14:29;0.83;;;0.50;;
38425;SDS011;24210;51.460;6.148;2024-01-15T13:16:54;2.90;;;0.40;;
38425;SDS011;24210;51.460;6.148;2024-01-15T13:19:20;2.13;;;0.37;;
38425;SDS011;24210;51.460;6.148;2024-01-15T13:21:46;0.50;;;0.50;;
38425;SDS011;24210;51.460;6.148;2024-01-15T13:24:12;0.20;;;0.20;;
38425;SDS011;24210;51.460;6.148;2024-01-15T13:26:37;1.47;;;0.50;;
38425;SDS011;24210;51.460;6.148;2024-01-15T13:29:02;1.77;;;0.50;;
38425;SDS011;24210;51.460;6.148;2024-01-15T13:31:29;0.40;;;0.40;;
38425;SDS011;24210;51.460;6.148;2024-01-15T13:33:54;3.13;;;0.47;;
38425;SDS011;24210;51.460;6.148;2024-01-15T13:36:20;0.73;;;0.20;;
38425;SDS011;24210;51.460;6.148;2024-01-15T13:38:46;1.33;;;0.40;;
38425;SDS011;24210;51.460;6.148;2024-01-15T13:41:11;2.23;;;0.73;;
38425;SDS011;24210;51.460;6.148;2024-01-15T13:43:37;2.40;;;0.50;;
38425;SDS011;24210;51.460;6.148;2024-01-15T13:46:02;0.60;;;0.40;;
38425;SDS011;24210;51.460;6.148;2024-01-15T13:48:30;0.82;;;0.43;;
38425;SDS011;24210;51.460;6.148;2024-01-15T13:50:56;0.88;;;0.73;;
38425;SDS011;24210;51.460;6.148;2024-01-15T13:53:21;0.10;;;0.10;;
38425;SDS011;24210;51.460;6.148;2024-01-15T13:55:47;0.37;;;0.20;;
38425;SDS011;24210;51.460;6.148;2024-01-15T13:58:13;0.63;;;0.63;;
38425;SDS011;24210;51.460;6.148;2024-01-15T14:00:39;1.40;;;1.00;;
38425;SDS011;24210;51.460;6.148;2024-01-15T14:03:04;1.13;;;0.63;;
38425;SDS011;24210;51.460;6.148;2024-01-15T14:05:30;1.77;;;0.77;;
38425;SDS011;24210;51.460;6.148;2024-01-15T14:07:55;2.70;;;0.83;;
38425;SDS011;24210;51.460;6.148;2024-01-15T14:10:20;2.00;;;0.63;;
38425;SDS011;24210;51.460;6.148;2024-01-15T14:12:45;1.13;;;1.00;;
38425;SDS011;24210;51.460;6.148;2024-01-15T14:15:10;4.80;;;1.17;;
38425;SDS011;24210;51.460;6.148;2024-01-15T14:17:36;1.23;;;0.80;;
38425;SDS011;24210;51.460;6.148;2024-01-15T14:20:02;5.22;;;0.90;;
38425;SDS011;24210;51.460;6.148;2024-01-15T14:22:30;2.88;;;1.13;;
38425;SDS011;24210;51.460;6.148;2024-01-15T14:24:55;2.10;;;0.60;;
38425;SDS011;24210;51.460;6.148;2024-01-15T14:27:20;0.67;;;0.67;;
38425;SDS011;24210;51.460;6.148;2024-01-15T14:29:46;3.13;;;0.65;;
38425;SDS011;24210;51.460;6.148;2024-01-15T14:32:11;0.60;;;0.60;;
38425;SDS011;24210;51.460;6.148;2024-01-15T14:34:37;1.10;;;1.00;;
38425;SDS011;24210;51.460;6.148;2024-01-15T14:37:02;1.87;;;1.67;;
38425;SDS011;24210;51.460;6.148;2024-01-15T14:39:27;1.07;;;0.97;;
38425;SDS011;24210;51.460;6.148;2024-01-15T14:41:52;3.20;;;0.80;;
38425;SDS011;24210;51.460;6.148;2024-01-15T14:44:18;0.50;;;0.50;;
38425;SDS011;24210;51.460;6.148;2024-01-15T14:46:43;1.93;;;0.70;;
38425;SDS011;24210;51.460;6.148;2024-01-15T14:49:08;1.47;;;0.37;;
38425;SDS011;24210;51.460;6.148;2024-01-15T14:51:34;1.30;;;0.97;;
38425;SDS011;24210;51.460;6.148;2024-01-15T14:53:59;3.17;;;2.00;;